SBMN/MAO METAR and TAF weather

Enter ICAO airport designator
Station Type Date Time Source
SBMN METAR 2019/08/22 09:00 UTC NOAA

SBMN 220900Z 06001KT 9999 FEW012 24/23 Q1013


Station Type Date Time Source
SBMN Decoded METAR 2019/08/22 09:00 UTC NOAA

Station name not available
Aug 22, 2019 - 05:00 AM EDT / 2019.08.22 0900 UTC
Wind: from the ENE (060 degrees) at 1 MPH (1 KT):0
Visibility: greater than 7 mile(s):0
Sky conditions: mostly clear
Temperature: 75 F (24 C)
Dew Point: 73 F (23 C)
Relative Humidity: 94%
Pressure (altimeter): 29.91 in. Hg (1013 hPa)
ob: SBMN 220900Z 06001KT 9999 FEW012 24/23 Q1013
cycle: 9

Station Type Date Time Source
SBMN TAF 2019/08/22 06:59 UTC NOAA

TAF SBMN 220400Z 2206/2218 03003KT CAVOK TN26/2209Z TX33/2217Z
BECMG 2210/2212 8000 NSC
BECMG 2214/2216 14005KT 9999 SCT020
BECMG 2216/2218 SCT020 FEW025TCU
RMK PCQ

Example: see airport list